sensor_id;sensor_type;location;lat;lon;timestamp;temperature;humidity
418;DHT22;49;48.530;9.200;2022-10-04T00:01:00;17.50;55.90
418;DHT22;49;48.530;9.200;2022-10-04T00:03:31;17.50;51.10
418;DHT22;49;48.530;9.200;2022-10-04T00:06:00;17.50;55.10
418;DHT22;49;48.530;9.200;2022-10-04T00:08:31;17.50;51.90
418;DHT22;49;48.530;9.200;2022-10-04T00:11:07;17.20;53.30
418;DHT22;49;48.530;9.200;2022-10-04T00:13:39;17.00;51.90
418;DHT22;49;48.530;9.200;2022-10-04T00:16:17;16.70;55.60
418;DHT22;49;48.530;9.200;2022-10-04T00:18:44;16.80;55.40
418;DHT22;49;48.530;9.200;2022-10-04T00:21:11;17.20;58.60
418;DHT22;49;48.530;9.200;2022-10-04T00:23:44;17.40;55.30
418;DHT22;49;48.530;9.200;2022-10-04T00:29:37;16.30;55.30
418;DHT22;49;48.530;9.200;2022-10-04T00:32:23;15.50;53.60
418;DHT22;49;48.530;9.200;2022-10-04T00:34:52;15.30;55.90
418;DHT22;49;48.530;9.200;2022-10-04T00:37:20;14.90;51.00
418;DHT22;49;48.530;9.200;2022-10-04T00:39:56;14.30;63.00
418;DHT22;49;48.530;9.200;2022-10-04T00:42:49;13.90;58.80
418;DHT22;49;48.530;9.200;2022-10-04T00:45:26;13.50;58.30
418;DHT22;49;48.530;9.200;2022-10-04T00:48:13;13.60;57.70
418;DHT22;49;48.530;9.200;2022-10-04T00:50:48;14.10;75.90
418;DHT22;49;48.530;9.200;2022-10-04T00:53:34;14.30;56.10
418;DHT22;49;48.530;9.200;2022-10-04T00:56:04;14.20;59.50
418;DHT22;49;48.530;9.200;2022-10-04T00:58:43;14.70;60.30
418;DHT22;49;48.530;9.200;2022-10-04T01:01:11;14.30;67.10
418;DHT22;49;48.530;9.200;2022-10-04T01:03:41;14.40;72.60
418;DHT22;49;48.530;9.200;2022-10-04T01:06:10;14.10;53.30
418;DHT22;49;48.530;9.200;2022-10-04T01:08:40;13.80;57.40
418;DHT22;49;48.530;9.200;2022-10-04T01:11:14;13.90;56.00
418;DHT22;49;48.530;9.200;2022-10-04T01:13:48;14.20;76.20
418;DHT22;49;48.530;9.200;2022-10-04T01:16:18;14.60;79.30
418;DHT22;49;48.530;9.200;2022-10-04T01:18:45;15.40;69.10
418;DHT22;49;48.530;9.200;2022-10-04T01:21:23;15.60;68.40
418;DHT22;49;48.530;9.200;2022-10-04T01:24:18;14.90;55.20
418;DHT22;49;48.530;9.200;2022-10-04T01:26:47;15.20;74.80
418;DHT22;49;48.530;9.200;2022-10-04T01:29:16;15.70;68.50
418;DHT22;49;48.530;9.200;2022-10-04T01:31:45;15.20;49.60
418;DHT22;49;48.530;9.200;2022-10-04T01:34:15;14.90;56.10
418;DHT22;49;48.530;9.200;2022-10-04T01:36:43;15.10;76.40
418;DHT22;49;48.530;9.200;2022-10-04T01:39:14;15.40;69.10
418;DHT22;49;48.530;9.200;2022-10-04T01:41:45;15.80;71.30
418;DHT22;49;48.530;9.200;2022-10-04T01:44:19;16.10;60.20
418;DHT22;49;48.530;9.200;2022-10-04T01:46:49;15.80;63.60
418;DHT22;49;48.530;9.200;2022-10-04T01:49:19;16.10;66.90
418;DHT22;49;48.530;9.200;2022-10-04T01:51:54;16.00;53.40
418;DHT22;49;48.530;9.200;2022-10-04T01:54:31;15.50;55.20
418;DHT22;49;48.530;9.200;2022-10-04T01:57:05;14.50;49.30
418;DHT22;49;48.530;9.200;2022-10-04T01:59:37;14.00;54.20
418;DHT22;49;48.530;9.200;2022-10-04T02:02:09;13.30;63.10
418;DHT22;49;48.530;9.200;2022-10-04T02:04:41;12.90;59.50
418;DHT22;49;48.530;9.200;2022-10-04T02:07:13;12.40;65.30
418;DHT22;49;48.530;9.200;2022-10-04T02:09:44;12.20;65.20
418;DHT22;49;48.530;9.200;2022-10-04T02:12:14;12.80;78.30
418;DHT22;49;48.530;9.200;2022-10-04T02:14:46;13.60;75.30
418;DHT22;49;48.530;9.200;2022-10-04T02:17:19;13.20;68.40
418;DHT22;49;48.530;9.200;2022-10-04T02:19:47;13.80;76.50
418;DHT22;49;48.530;9.200;2022-10-04T02:22:15;14.90;79.20
418;DHT22;49;48.530;9.200;2022-10-04T02:24:46;15.50;74.80
418;DHT22;49;48.530;9.200;2022-10-04T02:27:15;15.50;71.90
418;DHT22;49;48.530;9.200;2022-10-04T02:29:42;15.50;71.60
418;DHT22;49;48.530;9.200;2022-10-04T02:32:09;15.60;73.60
418;DHT22;49;48.530;9.200;2022-10-04T02:34:55;15.80;70.40
418;DHT22;49;48.530;9.200;2022-10-04T02:37:22;16.00;68.80
418;DHT22;49;48.530;9.200;2022-10-04T02:39:55;15.90;69.90
418;DHT22;49;48.530;9.200;2022-10-04T02:42:36;16.10;71.10
418;DHT22;49;48.530;9.200;2022-10-04T02:45:11;16.20;66.00
418;DHT22;49;48.530;9.200;2022-10-04T02:47:43;15.70;55.10
418;DHT22;49;48.530;9.200;2022-10-04T02:50:20;14.80;57.80
418;DHT22;49;48.530;9.200;2022-10-04T02:52:54;14.40;56.30
418;DHT22;49;48.530;9.200;2022-10-04T02:55:26;14.10;67.00
418;DHT22;49;48.530;9.200;2022-10-04T02:57:56;14.10;70.20
418;DHT22;49;48.530;9.200;2022-10-04T03:00:25;13.70;60.60
418;DHT22;49;48.530;9.200;2022-10-04T03:03:13;14.10;74.00
418;DHT22;49;48.530;9.200;2022-10-04T03:05:42;14.30;61.00
418;DHT22;49;48.530;9.200;2022-10-04T03:08:10;14.40;77.30
418;DHT22;49;48.530;9.200;2022-10-04T03:10:41;14.70;63.50
418;DHT22;49;48.530;9.200;2022-10-04T03:13:08;15.10;67.90
418;DHT22;49;48.530;9.200;2022-10-04T03:15:36;15.60;65.20
418;DHT22;49;48.530;9.200;2022-10-04T03:18:04;15.10;56.20
418;DHT22;49;48.530;9.200;2022-10-04T03:20:31;14.30;56.70
418;DHT22;49;48.530;9.200;2022-10-04T03:23:03;14.40;79.40
418;DHT22;49;48.530;9.200;2022-10-04T03:25:38;15.00;73.70
418;DHT22;49;48.530;9.200;2022-10-04T03:28:09;15.30;65.90
418;DHT22;49;48.530;9.200;2022-10-04T03:30:36;14.60;55.00
418;DHT22;49;48.530;9.200;2022-10-04T03:33:04;14.50;62.40
418;DHT22;49;48.530;9.200;2022-10-04T03:35:34;15.10;68.60
418;DHT22;49;48.530;9.200;2022-10-04T03:38:04;15.60;72.90
418;DHT22;49;48.530;9.200;2022-10-04T03:40:35;15.90;68.70
418;DHT22;49;48.530;9.200;2022-10-04T03:43:04;15.80;69.50
418;DHT22;49;48.530;9.200;2022-10-04T03:45:33;16.10;68.60
418;DHT22;49;48.530;9.200;2022-10-04T03:48:03;16.00;62.90
418;DHT22;49;48.530;9.200;2022-10-04T03:50:33;16.10;64.50
418;DHT22;49;48.530;9.200;2022-10-04T03:53:06;16.00;62.50
418;DHT22;49;48.530;9.200;2022-10-04T03:55:37;16.00;56.10
418;DHT22;49;48.530;9.200;2022-10-04T03:58:08;16.20;66.30
418;DHT22;49;48.530;9.200;2022-10-04T04:00:42;16.30;61.80
418;DHT22;49;48.530;9.200;2022-10-04T04:03:15;16.50;65.90
418;DHT22;49;48.530;9.200;2022-10-04T04:05:47;16.60;59.70
418;DHT22;49;48.530;9.200;2022-10-04T04:08:21;16.70;55.70
418;DHT22;49;48.530;9.200;2022-10-04T04:10:53;16.00;63.10
418;DHT22;49;48.530;9.200;2022-10-04T04:13:24;16.10;61.70
418;DHT22;49;48.530;9.200;2022-10-04T04:15:55;16.30;63.40
418;DHT22;49;48.530;9.200;2022-10-04T04:18:23;16.40;61.50
418;DHT22;49;48.530;9.200;2022-10-04T04:20:53;16.30;64.70
418;DHT22;49;48.530;9.200;2022-10-04T04:23:26;16.30;64.10
418;DHT22;49;48.530;9.200;2022-10-04T04:25:59;16.20;63.80
418;DHT22;49;48.530;9.200;2022-10-04T04:28:40;16.10;59.80
418;DHT22;49;48.530;9.200;2022-10-04T04:31:15;16.30;60.50
418;DHT22;49;48.530;9.200;2022-10-04T04:33:45;16.30;63.60
418;DHT22;49;48.530;9.200;2022-10-04T04:36:15;16.30;62.80
418;DHT22;49;48.530;9.200;2022-10-04T04:38:42;16.30;58.20
418;DHT22;49;48.530;9.200;2022-10-04T04:41:24;16.20;51.00
418;DHT22;49;48.530;9.200;2022-10-04T04:43:51;16.00;60.00
418;DHT22;49;48.530;9.200;2022-10-04T04:46:20;16.00;58.80
418;DHT22;49;48.530;9.200;2022-10-04T04:48:56;16.40;59.00
418;DHT22;49;48.530;9.200;2022-10-04T04:51:25;16.30;51.10
418;DHT22;49;48.530;9.200;2022-10-04T04:53:54;16.20;64.10
418;DHT22;49;48.530;9.200;2022-10-04T04:56:25;16.40;58.30
418;DHT22;49;48.530;9.200;2022-10-04T04:58:56;16.20;62.40
418;DHT22;49;48.530;9.200;2022-10-04T05:01:28;16.10;65.50
418;DHT22;49;48.530;9.200;2022-10-04T05:04:00;16.50;59.60
418;DHT22;49;48.530;9.200;2022-10-04T05:06:29;16.20;63.60
418;DHT22;49;48.530;9.200;2022-10-04T05:08:56;15.10;54.70
418;DHT22;49;48.530;9.200;2022-10-04T05:11:26;14.20;54.90
418;DHT22;49;48.530;9.200;2022-10-04T05:13:58;14.50;59.60
418;DHT22;49;48.530;9.200;2022-10-04T05:16:33;14.90;60.90
418;DHT22;49;48.530;9.200;2022-10-04T05:19:05;14.30;57.10
418;DHT22;49;48.530;9.200;2022-10-04T05:21:34;14.10;73.30
418;DHT22;49;48.530;9.200;2022-10-04T05:24:08;14.70;73.60
418;DHT22;49;48.530;9.200;2022-10-04T05:26:36;15.00;62.30
418;DHT22;49;48.530;9.200;2022-10-04T05:29:08;15.30;63.50
418;DHT22;49;48.530;9.200;2022-10-04T05:31:44;14.90;57.40
418;DHT22;49;48.530;9.200;2022-10-04T05:34:18;15.30;64.60
418;DHT22;49;48.530;9.200;2022-10-04T05:36:58;15.30;62.70
418;DHT22;49;48.530;9.200;2022-10-04T05:39:30;15.40;58.80
418;DHT22;49;48.530;9.200;2022-10-04T05:42:04;15.70;70.10
418;DHT22;49;48.530;9.200;2022-10-04T05:44:45;16.00;59.60
418;DHT22;49;48.530;9.200;2022-10-04T05:47:14;16.00;61.90
418;DHT22;49;48.530;9.200;2022-10-04T05:49:44;15.90;57.40
418;DHT22;49;48.530;9.200;2022-10-04T05:52:14;15.60;60.20
418;DHT22;49;48.530;9.200;2022-10-04T05:54:42;15.70;59.50
418;DHT22;49;48.530;9.200;2022-10-04T05:57:30;15.80;59.20
418;DHT22;49;48.530;9.200;2022-10-04T06:00:13;15.90;60.20
418;DHT22;49;48.530;9.200;2022-10-04T06:03:03;16.00;66.50
418;DHT22;49;48.530;9.200;2022-10-04T06:05:47;16.40;55.40
418;DHT22;49;48.530;9.200;2022-10-04T06:08:29;16.50;58.30
418;DHT22;49;48.530;9.200;2022-10-04T06:11:22;16.30;55.60
418;DHT22;49;48.530;9.200;2022-10-04T06:14:20;16.30;61.00
418;DHT22;49;48.530;9.200;2022-10-04T06:20:11;16.10;48.00
418;DHT22;49;48.530;9.200;2022-10-04T06:22:45;15.60;62.30
418;DHT22;49;48.530;9.200;2022-10-04T06:25:16;15.80;53.80
418;DHT22;49;48.530;9.200;2022-10-04T06:27:50;16.00;51.90
418;DHT22;49;48.530;9.200;2022-10-04T06:30:20;15.50;54.50
418;DHT22;49;48.530;9.200;2022-10-04T06:33:14;15.80;51.60
418;DHT22;49;48.530;9.200;2022-10-04T06:36:16;15.50;61.30
418;DHT22;49;48.530;9.200;2022-10-04T06:39:08;14.50;52.00
418;DHT22;49;48.530;9.200;2022-10-04T06:42:12;13.90;58.70
418;DHT22;49;48.530;9.200;2022-10-04T06:45:03;14.10;64.30
418;DHT22;49;48.530;9.200;2022-10-04T06:47:48;15.10;73.20
418;DHT22;49;48.530;9.200;2022-10-04T06:50:26;14.90;56.70
418;DHT22;49;48.530;9.200;2022-10-04T06:53:13;15.00;66.20
418;DHT22;49;48.530;9.200;2022-10-04T06:59:18;15.90;63.50
418;DHT22;49;48.530;9.200;2022-10-04T07:01:50;16.50;58.00
418;DHT22;49;48.530;9.200;2022-10-04T07:04:30;16.70;54.30
418;DHT22;49;48.530;9.200;2022-10-04T07:07:11;16.50;57.60
418;DHT22;49;48.530;9.200;2022-10-04T07:10:16;16.60;50.40
418;DHT22;49;48.530;9.200;2022-10-04T07:12:47;16.60;54.60
418;DHT22;49;48.530;9.200;2022-10-04T07:15:21;16.90;55.80
418;DHT22;49;48.530;9.200;2022-10-04T07:17:51;16.60;44.20
418;DHT22;49;48.530;9.200;2022-10-04T07:20:21;15.60;49.20
418;DHT22;49;48.530;9.200;2022-10-04T07:22:55;15.40;64.90
418;DHT22;49;48.530;9.200;2022-10-04T07:25:28;16.10;59.40
418;DHT22;49;48.530;9.200;2022-10-04T07:28:00;16.10;57.40
418;DHT22;49;48.530;9.200;2022-10-04T07:30:49;15.80;56.50
418;DHT22;49;48.530;9.200;2022-10-04T07:33:20;15.90;63.70
418;DHT22;49;48.530;9.200;2022-10-04T07:35:50;16.20;51.20
418;DHT22;49;48.530;9.200;2022-10-04T07:38:24;16.30;55.30
418;DHT22;49;48.530;9.200;2022-10-04T07:41:04;16.10;45.40
418;DHT22;49;48.530;9.200;2022-10-04T07:43:50;15.90;56.70
418;DHT22;49;48.530;9.200;2022-10-04T07:46:38;16.10;55.10
418;DHT22;49;48.530;9.200;2022-10-04T07:49:12;16.10;48.60
418;DHT22;49;48.530;9.200;2022-10-04T07:51:47;16.30;48.90
418;DHT22;49;48.530;9.200;2022-10-04T07:54:25;16.30;55.30
418;DHT22;49;48.530;9.200;2022-10-04T07:56:59;16.70;49.10
418;DHT22;49;48.530;9.200;2022-10-04T07:59:38;17.00;51.80
418;DHT22;49;48.530;9.200;2022-10-04T08:02:18;17.50;51.70
418;DHT22;49;48.530;9.200;2022-10-04T08:04:54;17.60;49.80
418;DHT22;49;48.530;9.200;2022-10-04T08:07:25;17.70;43.40
418;DHT22;49;48.530;9.200;2022-10-04T08:10:00;17.80;48.60
418;DHT22;49;48.530;9.200;2022-10-04T08:12:41;17.80;42.60
418;DHT22;49;48.530;9.200;2022-10-04T08:15:28;17.70;42.40
418;DHT22;49;48.530;9.200;2022-10-04T08:18:03;17.50;39.80
418;DHT22;49;48.530;9.200;2022-10-04T08:20:39;17.30;42.50
418;DHT22;49;48.530;9.200;2022-10-04T08:23:21;17.50;49.40
418;DHT22;49;48.530;9.200;2022-10-04T08:25:56;17.70;39.90
418;DHT22;49;48.530;9.200;2022-10-04T08:28:34;17.90;40.40
418;DHT22;49;48.530;9.200;2022-10-04T08:31:30;17.60;39.80
418;DHT22;49;48.530;9.200;2022-10-04T08:34:11;17.30;42.80
418;DHT22;49;48.530;9.200;2022-10-04T08:36:51;17.40;45.80
418;DHT22;49;48.530;9.200;2022-10-04T08:39:36;17.50;42.30
418;DHT22;49;48.530;9.200;2022-10-04T08:42:32;17.90;45.30
418;DHT22;49;48.530;9.200;2022-10-04T08:51:54;17.00;45.60
418;DHT22;49;48.530;9.200;2022-10-04T08:58:04;17.00;47.90
418;DHT22;49;48.530;9.200;2022-10-04T09:00:56;16.80;47.00
418;DHT22;49;48.530;9.200;2022-10-04T09:06:39;16.90;47.30
418;DHT22;49;48.530;9.200;2022-10-04T09:09:54;16.90;53.00
418;DHT22;49;48.530;9.200;2022-10-04T09:12:39;17.80;48.80
418;DHT22;49;48.530;9.200;2022-10-04T09:15:28;18.30;43.00
418;DHT22;49;48.530;9.200;2022-10-04T09:18:13;18.80;43.40
418;DHT22;49;48.530;9.200;2022-10-04T09:20:53;19.00;39.60
418;DHT22;49;48.530;9.200;2022-10-04T09:23:53;18.80;38.90
418;DHT22;49;48.530;9.200;2022-10-04T09:26:30;18.60;40.50
418;DHT22;49;48.530;9.200;2022-10-04T09:29:20;18.90;40.10
418;DHT22;49;48.530;9.200;2022-10-04T20:26:07;19.00;51.10
418;DHT22;49;48.530;9.200;2022-10-04T20:28:40;19.20;49.10
418;DHT22;49;48.530;9.200;2022-10-04T20:31:08;19.30;49.50
418;DHT22;49;48.530;9.200;2022-10-04T20:33:50;19.40;50.40
418;DHT22;49;48.530;9.200;2022-10-04T20:36:48;19.30;50.20
418;DHT22;49;48.530;9.200;2022-10-04T20:42:32;19.50;50.50
418;DHT22;49;48.530;9.200;2022-10-04T20:45:02;19.50;49.10
418;DHT22;49;48.530;9.200;2022-10-04T20:47:40;19.60;49.30
418;DHT22;49;48.530;9.200;2022-10-04T20:50:38;19.70;49.00
418;DHT22;49;48.530;9.200;2022-10-04T20:53:14;19.50;48.20
418;DHT22;49;48.530;9.200;2022-10-04T20:55:41;19.40;50.40
418;DHT22;49;48.530;9.200;2022-10-04T20:58:31;19.30;48.50
418;DHT22;49;48.530;9.200;2022-10-04T21:01:01;19.30;50.20
418;DHT22;49;48.530;9.200;2022-10-04T21:03:40;18.40;52.00
418;DHT22;49;48.530;9.200;2022-10-04T21:06:09;18.60;55.60
418;DHT22;49;48.530;9.200;2022-10-04T21:08:37;18.50;52.70
418;DHT22;49;48.530;9.200;2022-10-04T21:11:17;18.70;55.20
418;DHT22;49;48.530;9.200;2022-10-04T21:13:50;19.10;54.10
418;DHT22;49;48.530;9.200;2022-10-04T21:16:38;19.30;52.40
418;DHT22;49;48.530;9.200;2022-10-04T21:22:36;19.00;53.20
418;DHT22;49;48.530;9.200;2022-10-04T21:25:26;19.10;52.80
418;DHT22;49;48.530;9.200;2022-10-04T21:27:57;19.20;51.70
418;DHT22;49;48.530;9.200;2022-10-04T21:30:41;19.30;52.00
418;DHT22;49;48.530;9.200;2022-10-04T21:33:08;19.30;51.30
418;DHT22;49;48.530;9.200;2022-10-04T21:35:35;19.30;50.30
418;DHT22;49;48.530;9.200;2022-10-04T21:38:02;19.40;51.50
418;DHT22;49;48.530;9.200;2022-10-04T21:40:30;19.40;51.10
418;DHT22;49;48.530;9.200;2022-10-04T21:42:57;19.40;51.10
418;DHT22;49;48.530;9.200;2022-10-04T21:45:24;19.30;50.80
418;DHT22;49;48.530;9.200;2022-10-04T21:47:52;19.30;51.00
418;DHT22;49;48.530;9.200;2022-10-04T21:50:19;19.40;51.10
418;DHT22;49;48.530;9.200;2022-10-04T21:52:46;19.40;50.90
418;DHT22;49;48.530;9.200;2022-10-04T21:55:13;19.50;50.50
418;DHT22;49;48.530;9.200;2022-10-04T21:57:39;19.50;50.60
418;DHT22;49;48.530;9.200;2022-10-04T22:00:08;19.50;50.30
418;DHT22;49;48.530;9.200;2022-10-04T22:02:35;19.30;49.40
418;DHT22;49;48.530;9.200;2022-10-04T22:05:04;19.30;50.40
418;DHT22;49;48.530;9.200;2022-10-04T22:07:31;19.40;50.30
418;DHT22;49;48.530;9.200;2022-10-04T22:09:58;19.40;49.90
418;DHT22;49;48.530;9.200;2022-10-04T22:12:24;19.30;50.30
418;DHT22;49;48.530;9.200;2022-10-04T22:14:51;19.30;50.10
418;DHT22;49;48.530;9.200;2022-10-04T22:17:18;19.20;49.90
418;DHT22;49;48.530;9.200;2022-10-04T22:19:45;19.10;50.00
418;DHT22;49;48.530;9.200;2022-10-04T22:22:16;19.10;50.00
418;DHT22;49;48.530;9.200;2022-10-04T22:24:43;19.10;50.80
418;DHT22;49;48.530;9.200;2022-10-04T22:27:12;19.00;49.00
418;DHT22;49;48.530;9.200;2022-10-04T22:29:40;18.80;51.20
418;DHT22;49;48.530;9.200;2022-10-04T22:32:10;18.80;50.60
418;DHT22;49;48.530;9.200;2022-10-04T22:34:38;18.50;48.10
418;DHT22;49;48.530;9.200;2022-10-04T22:37:09;18.30;52.50
418;DHT22;49;48.530;9.200;2022-10-04T22:39:38;18.60;53.90
418;DHT22;49;48.530;9.200;2022-10-04T22:42:05;18.70;52.60
418;DHT22;49;48.530;9.200;2022-10-04T22:44:34;18.70;49.00
418;DHT22;49;48.530;9.200;2022-10-04T22:47:11;18.80;52.60
418;DHT22;49;48.530;9.200;2022-10-04T22:49:41;18.70;51.60
418;DHT22;49;48.530;9.200;2022-10-04T22:52:13;18.90;52.20
418;DHT22;49;48.530;9.200;2022-10-04T22:54:44;18.70;50.00
418;DHT22;49;48.530;9.200;2022-10-04T22:57:12;18.80;52.10
418;DHT22;49;48.530;9.200;2022-10-04T22:59:41;18.80;51.60
418;DHT22;49;48.530;9.200;2022-10-04T23:02:12;18.90;51.80
418;DHT22;49;48.530;9.200;2022-10-04T23:04:42;18.90;51.50
418;DHT22;49;48.530;9.200;2022-10-04T23:07:09;19.00;51.00
418;DHT22;49;48.530;9.200;2022-10-04T23:09:36;19.00;50.80
418;DHT22;49;48.530;9.200;2022-10-04T23:12:07;19.00;50.40
418;DHT22;49;48.530;9.200;2022-10-04T23:14:35;19.00;50.80
418;DHT22;49;48.530;9.200;2022-10-04T23:17:12;19.00;50.80
418;DHT22;49;48.530;9.200;2022-10-04T23:19:42;19.10;50.80
418;DHT22;49;48.530;9.200;2022-10-04T23:22:11;19.10;50.50
418;DHT22;49;48.530;9.200;2022-10-04T23:24:39;19.00;50.20
418;DHT22;49;48.530;9.200;2022-10-04T23:27:13;19.10;50.20
418;DHT22;49;48.530;9.200;2022-10-04T23:29:41;19.00;50.50
418;DHT22;49;48.530;9.200;2022-10-04T23:32:09;19.00;50.20
418;DHT22;49;48.530;9.200;2022-10-04T23:34:38;18.70;47.50
418;DHT22;49;48.530;9.200;2022-10-04T23:37:13;18.40;51.20
418;DHT22;49;48.530;9.200;2022-10-04T23:39:40;18.50;50.60
418;DHT22;49;48.530;9.200;2022-10-04T23:42:15;18.50;51.20
418;DHT22;49;48.530;9.200;2022-10-04T23:44:42;18.60;52.40
418;DHT22;49;48.530;9.200;2022-10-04T23:47:13;18.60;50.40
418;DHT22;49;48.530;9.200;2022-10-04T23:49:42;18.50;51.30
418;DHT22;49;48.530;9.200;2022-10-04T23:52:15;18.60;52.00
418;DHT22;49;48.530;9.200;2022-10-04T23:54:43;18.30;50.10
418;DHT22;49;48.530;9.200;2022-10-04T23:57:22;18.10;51.60
418;DHT22;49;48.530;9.200;2022-10-04T23:59:50;18.00;53.60
